Collinwood, Tennessee
Current Conditions -  °F | °C
As of 1:55 PM on Tuesday 21 Oct 2014 (Local Time) from KSNH Reporting Station
Clear Clear  
Wind Chill: 73°   Ceiling: Unl
Heat Index: 73°   Visibility: 10mi
Dew Point: 48°   Wind: 7mph
Humidity: 41%   Direction: NA
Pressure: 30.06"   Gusts: NA
Location:  35.17°N, 87.74°W
Report Text: KSNH 211855Z AUTO VRB06KT 10SM CLR 23/09 A3006 RMK
Loading
Personal Weather Stations






























Interactive Weather Map
Tropical Storm Tracking
New forecast layout! Learn more

10-Day Weather Forecast

Advertisements
Track Severe Weather on mobile